This is the latest recevied weather packets stored in our database for station/object SIILIN. If no packets are shown the sender has not sent any weather packets the latest 10 day(s).
| Time | Temp. | Humidity | Pressure | Rain* | Wind** | Luminosity | Snow |
|---|---|---|---|---|---|---|---|
| 1777688824 | 7.78° C | 67% | 1010.9 hPa | - | - | - | - |
| 1777687623 | 6.67° C | 80% | 1011.2 hPa | - | - | - | - |
| 1777686423 | 6.67° C | 78% | 1011.5 hPa | - | - | - | - |
| 1777685224 | 6.67° C | 86% | 1011.8 hPa | - | - | - | - |
| 1777684024 | 7.22° C | 80% | 1012.1 hPa | - | - | - | - |
| 1777682823 | 8.33° C | 68% | 1012.4 hPa | - | - | - | - |
| 1777681623 | 8.33° C | 65% | 1012.6 hPa | - | - | - | - |
| 1777680423 | 9.44° C | 59% | 1012.7 hPa | - | - | - | - |
| 1777679223 | 7.22° C | 80% | 1012.9 hPa | - | - | - | - |
| 1777678022 | 8.89° C | 63% | 1013 hPa | - | - | - | - |
| 1777676823 | 7.22° C | 88% | 1013.1 hPa | - | - | - | - |
| 1777675623 | 8.33° C | 76% | 1013.2 hPa | - | - | - | - |
| 1777674423 | 8.33° C | 79% | 1013.2 hPa | - | - | - | - |
| 1777673223 | 11.11° C | 49% | 1013.2 hPa | - | - | - | - |
| 1777672023 | 11.11° C | 51% | 1013.5 hPa | - | - | - | - |
| 1777670822 | 11.11° C | 51% | 1013.8 hPa | - | - | - | - |
| 1777669622 | 11.67° C | 51% | 1014 hPa | - | - | - | - |
| 1777668422 | 12.22° C | 50% | 1014 hPa | - | - | - | - |
| 1777667222 | 13.89° C | 42% | 1014 hPa | - | - | - | - |
| 1777666022 | 13.89° C | 41% | 1014.1 hPa | - | - | - | - |
| 1777664822 | 13.89° C | 40% | 1014.3 hPa | - | - | - | - |
| 1777663622 | 14.44° C | 40% | 1014.4 hPa | - | - | - | - |
| 1777662422 | 14.44° C | 42% | 1014.5 hPa | - | - | - | - |
| 1777661222 | 14.44° C | 41% | 1014.4 hPa | - | - | - | - |
| 1777660022 | 15.56° C | 42% | 1014.4 hPa | - | - | - | - |
* Rain since midnight (hover to see other rain measurements)
** Current wind speed in m/s (hover to see current wind gust speed)